AirNav   Bose Proflight Series 2 Wireless Aviation Headset
 
 488 users online  

0IL9 Jack W Watson Airport
De Kalb, Illinois, USA

GOING TO DE KALB?


FAA INFORMATION EFFECTIVE 07 NOVEMBER 2019

Location

FAA Identifier: 0IL9
Lat/Long: 41-51-17.1050N 088-47-14.3090W
41-51.285083N 088-47.238483W
41.8547514,-88.7873081
(estimated)
Elevation: 880 ft. / 268 m (estimated)
Variation: 00W (1985)
From city: 4 miles SW of DE KALB, IL
Time zone: UTC -6 (UTC -5 during Daylight Saving Time)
Zip code: 60115

Airport Operations

Airport use: Private use. Permission required prior to landing
Activation date: 03/1967
Control tower: no
ARTCC: CHICAGO CENTER
FSS: KANKAKEE FLIGHT SERVICE STATION
Attendance: UNATNDD
Wind indicator: no
Segmented circle: no

Airport Communications

WX AWOS-3 at DKB (6 nm NE): 119.075 (815-748-2350)
WX AWOS-3 at RPJ (13 nm W): 125.2 (815-562-2955)
WX ASOS at ARR (15 nm E): PHONE 630-466-5622

Nearby radio navigation aids

VOR radial/distance  VOR name  Freq  Var
DPAr262/19.6DUPAGE VOR/DME108.4002E
JOTr309/28.0JOLIET VOR/DME112.3002E
RFDr139/28.8ROCKFORD VOR/DME110.8001E
PLLr098/33.6POLO VOR/DME111.2003E

Airport Services

Airframe service: NONE
Powerplant service: NONE

Runway Information

Runway E/W

Dimensions: 2800 x 100 ft. / 853 x 30 m
Surface: turf
RUNWAY E  RUNWAY W
Traffic pattern: leftleft
Obstructions: bldg, markednone

Airport Ownership and Management from official FAA records

Ownership: Privately-owned
Owner: JACK W. WATSON
15320 SOUTH FIRST ST
DE KALB, IL 60115
Phone 815-756-2007

Airport Operational Statistics

Aircraft based on the field: 2
Single engine airplanes: 2
    

Additional Remarks

FOR CD CTC CHICAGO APCH AT 847-289-0926.

Instrument Procedures

There are no published instrument procedures at 0IL9.

Some nearby airports with instrument procedures:

KDKB - De Kalb Taylor Municipal Airport (6 nm NE)
KRPJ - Rochelle Municipal Airport-Koritz Field (13 nm W)
KARR - Aurora Municipal Airport (15 nm E)
KDPA - DuPage Airport (24 nm E)
KRFD - Chicago/Rockford International Airport (25 nm NW)
 
Loc | Ops | Rwys | IFR | FBO | Links
Com | Nav | Svcs | Stats | Notes
Area around 0IL9 (Jack W Watson Airport)
 
Road maps at: MapQuest Bing Google
 
Aerial photo
No photo
 
Sectional chart

 
Airport distance calculator
Flying to Jack W Watson Airport? Find the distance to fly.

From to 0IL9

Sunrise and sunset
Times for 12-Nov-2019
 Local
(UTC-6)
 Zulu
(UTC)
Morning civil twilight06:1212:12
Sunrise06:4212:42
Sunset16:3722:37
Evening civil twilight17:0623:06

Current date and time
Zulu (UTC)  12-Nov-2019 11:45:13
Local (UTC-6)  12-Nov-2019 05:45:13
 
METAR
KDKB 
6nm NE 
121135Z AUTO 31007KT 10SM CLR M17/M20 A3047 RMK AO2 T11661198
KRPJ 
13nm W 
121135Z AUTO 32005KT 10SM CLR M15/M19 A3050 RMK AO2 T11551189
KARR 
15nm E 
121052Z AUTO 29009KT 10SM CLR M16/M19 A3046 RMK AO2 SLP331 T11561194 $
TAF
KDPA 
24nm E 
120902Z 1209/1306 32012G18KT P6SM SKC FM121800 30011KT P6SM FEW030 FM130000 24005KT P6SM SCT200
KRFD 
25nm NW 
120902Z 1209/1306 32010KT P6SM SKC FM122200 24005KT P6SM SCT250
NOTAMs
Click for the latest NOTAMs
NOTAMs are issued by the DoD/FAA and will open in a separate window not controlled by AirNav.

 

 
 

Would you like to see your business listed on this page?

 If your business provides an interesting product or service to pilots, flight crews, aircraft, or users of the Jack W Watson Airport, you should consider listing it here.  To start the listing process, click on the button below
 
Add a business
 

Other Pages about Jack W Watson Airport

Update a link
 
Copyright © AirNav, LLC. All rights reserved. Privacy Policy  Contact